Sioux City, IA

10:07 PM CDT on September 28, 2016 (GMT -0500)
Smith Villa Heights | | Change Station

Elev 1201 ft 42.51 °N, 96.44 °W | Updated 37 seconds ago

Clear
Clear
51.8 °F
Feels Like 51.8 °F
N
0.0
Wind Variable Wind from East
Gusts 0.0 mph

Today
High -- | Low -- °F
--% Chance of Precip.
Yesterday
High -- | Low -- °F
Precip. -- in
Pressure 30.34 in
Visibility 10.0 miles
Clouds Clear
Dew Point 49 °F
Humidity 90%
Rainfall 0.00 in
Snow Depth Not available.
7:20 AM 7:11 PM
Waning Crescent, 3% visible
METAR KSUX 290252Z 02006KT 10SM CLR 13/08 A3033 RMK AO2 SLP273 T01280078 52013
Pressure 30.34 in
Visibility 10.0 miles
Clouds Clear
Dew Point 49 °F
Humidity 90%
Rainfall 0.00 in
Snow Depth Not available.
7:20 AM 7:11 PM
Waning Crescent, 3% visible
METAR KSUX 290252Z 02006KT 10SM CLR 13/08 A3033 RMK AO2 SLP273 T01280078 52013

10-Day Weather Forecast

Almanac

Astronomy

Sep. 28, 2016 Rise Set
Actual Time
Civil Twilight
Nautical Twilight
Astronomical Twilight
Moon
Length of Visible Light
Length of Day
Tomorrow will be .
, % of the Moon is Illuminated

Today's Extremes

State Highs State Lows

Community

WunderPhotos

Upload Photos

1,942,404 photos uploaded!

WunderBlog® & News

Nearby

Air Quality

  Air Quality AQ Index Pollutant
Not available.

Snow Depth

Station Depth Elevation

Earthquake Activity

City Distance Mag. Time & Date
Minimum magnitude displayed is 2.5.

Coastal Water Temperatures

Place Temperature

Stations

Nearby Weather Stations

Station Location Temp. Windchill Dew Point Humidity Wind Precip. Elev Updated Type
                   

Watches & Warnings

There are currently no watches in effect.